createdAt,value
2022-08-22T11:03:49.907Z,100500.72
2022-08-22T11:06:25.997Z,100497.63
2022-08-22T11:09:21.778Z,100494.47
2022-08-22T11:12:07.876Z,100490.09
2022-08-22T11:14:47.695Z,100484.44
2022-08-22T11:17:30.283Z,100483.00
2022-08-22T11:20:19.727Z,100485.91
2022-08-22T11:22:51.568Z,100476.66
2022-08-22T11:25:52.419Z,100476.19
2022-08-22T11:28:36.992Z,100479.38
2022-08-22T11:31:16.499Z,100481.13
2022-08-22T11:33:58.954Z,100473.53
2022-08-22T11:36:27.827Z,100475.84
2022-08-22T11:39:02.558Z,100463.53
2022-08-22T11:41:59.714Z,100473.84
2022-08-22T11:44:54.004Z,100473.88
2022-08-22T11:47:31.224Z,100471.50
2022-08-22T11:49:58.887Z,100473.38
2022-08-22T11:52:51.752Z,100458.41
2022-08-22T11:55:34.533Z,100465.13
2022-08-22T11:58:29.207Z,100467.94
2022-08-22T12:00:56.757Z,100463.66
2022-08-22T12:03:43.593Z,100457.50
2022-08-22T12:06:50.654Z,100452.88
2022-08-22T12:09:21.132Z,100458.19
2022-08-22T12:12:01.395Z,100457.63
2022-08-22T12:14:42.893Z,100452.44
2022-08-22T12:17:33.537Z,100444.34
2022-08-22T12:20:17.445Z,100436.72
2022-08-22T12:23:02.035Z,100438.44
2022-08-22T12:25:44.834Z,100433.19
2022-08-22T12:28:24.741Z,100427.91
2022-08-22T12:31:11.102Z,100423.19
2022-08-22T12:34:03.448Z,100426.28
2022-08-22T12:36:51.712Z,100430.66
2022-08-22T12:39:53.230Z,100425.25
2022-08-22T12:42:28.204Z,100422.34
2022-08-22T12:45:07.691Z,100427.16
2022-08-22T12:48:00.349Z,100419.72
2022-08-22T12:50:41.504Z,100423.72
2022-08-22T12:53:37.535Z,100420.78
2022-08-22T12:56:05.781Z,100417.19
2022-08-22T12:59:22.522Z,100413.88
2022-08-22T13:01:55.098Z,100415.28
2022-08-22T13:04:32.642Z,100400.16
2022-08-22T13:07:18.991Z,100399.69
2022-08-22T13:09:58.743Z,100398.47
2022-08-22T13:12:39.925Z,100393.59
2022-08-22T13:15:20.752Z,100389.91
2022-08-22T13:17:54.556Z,100388.81
